createdAt,value
2022-08-01T00:00:09.619Z,50.98
2022-08-01T00:02:40.115Z,50.85
2022-08-01T00:05:07.532Z,50.47
2022-08-01T00:07:37.383Z,50.41
2022-08-01T00:10:05.280Z,50.95
2022-08-01T00:12:32.039Z,50.75
2022-08-01T00:14:58.749Z,50.56
2022-08-01T00:17:25.737Z,50.54
2022-08-01T00:19:52.492Z,50.64
2022-08-01T00:22:19.226Z,51.60
2022-08-01T00:24:46.189Z,50.78
2022-08-01T00:27:13.022Z,51.05
2022-08-01T00:30:11.966Z,51.21
2022-08-01T00:32:26.802Z,50.99
2022-08-01T00:34:53.515Z,50.41
2022-08-01T00:37:20.262Z,51.37
2022-08-01T00:39:47.302Z,51.22
2022-08-01T00:42:14.078Z,51.17
2022-08-01T00:44:41.074Z,51.10
2022-08-01T00:47:10.242Z,51.38
2022-08-01T00:49:37.072Z,51.59
2022-08-01T00:52:05.955Z,51.54
2022-08-01T00:54:33.287Z,51.11
2022-08-01T00:57:00.085Z,50.97
2022-08-01T00:59:26.840Z,52.20
2022-08-01T01:01:53.915Z,51.67
2022-08-01T01:04:22.278Z,51.30
2022-08-01T01:06:48.998Z,51.73
2022-08-01T01:09:29.000Z,51.60
2022-08-01T01:11:55.696Z,51.37
2022-08-01T01:14:24.703Z,51.45
2022-08-01T01:16:51.476Z,51.42
2022-08-01T01:19:21.401Z,51.82
2022-08-01T01:22:08.668Z,50.99
2022-08-01T01:24:39.728Z,51.97
2022-08-01T01:27:18.921Z,52.01
2022-08-01T01:29:58.709Z,51.88
2022-08-01T01:32:34.782Z,51.96
2022-08-01T01:35:07.013Z,51.89
2022-08-01T01:37:34.874Z,52.16
2022-08-01T01:40:01.689Z,51.47
2022-08-01T01:42:28.428Z,52.70
2022-08-01T01:44:58.246Z,51.63
2022-08-01T01:47:24.977Z,51.86
2022-08-01T01:49:51.847Z,52.09
2022-08-01T01:52:18.828Z,51.56
2022-08-01T01:54:47.179Z,50.83
2022-08-01T01:57:14.209Z,51.65
2022-08-01T01:59:41.204Z,52.78
2022-08-01T02:02:08.165Z,51.90
2022-08-01T02:04:36.991Z,52.76
2022-08-01T02:07:04.236Z,52.10
2022-08-01T02:09:31.048Z,52.12
2022-08-01T02:12:07.510Z,51.99
2022-08-01T02:14:36.844Z,52.67
2022-08-01T02:17:05.247Z,52.87
2022-08-01T02:19:32.163Z,52.43
2022-08-01T02:22:23.418Z,51.93
2022-08-01T02:24:51.390Z,52.24
2022-08-01T02:27:39.204Z,52.64
2022-08-01T02:30:06.819Z,51.81
2022-08-01T02:32:41.337Z,51.73
2022-08-01T02:35:08.864Z,52.67
2022-08-01T02:37:35.827Z,51.12
2022-08-01T02:40:02.988Z,52.97
2022-08-01T02:42:31.709Z,52.88
2022-08-01T02:44:58.458Z,53.29
2022-08-01T02:47:26.430Z,52.64
2022-08-01T02:49:53.918Z,52.26
2022-08-01T02:52:21.619Z,52.68
2022-08-01T02:54:49.882Z,52.62
2022-08-01T02:57:17.343Z,52.58
2022-08-01T02:59:46.012Z,53.47
2022-08-01T03:02:13.044Z,53.10
2022-08-01T03:04:40.371Z,54.13
2022-08-01T03:07:07.691Z,54.23
2022-08-01T03:09:35.475Z,53.57
2022-08-01T03:12:04.263Z,54.19
2022-08-01T03:14:31.366Z,54.17
2022-08-01T03:16:58.091Z,54.04
2022-08-01T03:19:25.798Z,54.47
2022-08-01T03:21:52.686Z,54.19
2022-08-01T03:24:19.736Z,54.26
2022-08-01T03:26:46.864Z,54.32
2022-08-01T03:29:14.063Z,54.11
2022-08-01T03:31:43.784Z,53.61
2022-08-01T03:34:10.985Z,53.86
2022-08-01T03:36:58.002Z,53.34
2022-08-01T03:39:26.405Z,54.17
2022-08-01T03:41:56.872Z,54.36
2022-08-01T03:44:24.509Z,53.91
2022-08-01T03:46:53.279Z,53.96
2022-08-01T03:49:21.572Z,53.60
2022-08-01T03:51:50.456Z,54.01
2022-08-01T03:54:27.842Z,55.14
2022-08-01T03:56:54.631Z,54.92
2022-08-01T03:59:21.647Z,54.56
2022-08-01T04:01:48.467Z,54.14
2022-08-01T04:04:15.655Z,53.74
2022-08-01T04:06:42.426Z,53.93
2022-08-01T04:09:13.443Z,54.18
2022-08-01T04:11:41.948Z,53.73
2022-08-01T04:14:09.371Z,53.48
2022-08-01T04:16:36.346Z,53.56
2022-08-01T04:19:03.446Z,54.09
2022-08-01T04:21:30.337Z,53.95
2022-08-01T04:23:57.502Z,53.15
2022-08-01T04:26:24.564Z,52.61
2022-08-01T04:28:51.277Z,53.11
2022-08-01T04:31:18.045Z,53.48
2022-08-01T04:33:46.463Z,52.57
2022-08-01T04:36:13.544Z,52.80
2022-08-01T04:38:40.342Z,53.37
2022-08-01T04:41:11.081Z,52.42
2022-08-01T04:43:38.422Z,52.45
2022-08-01T04:46:05.912Z,51.96
2022-08-01T04:48:32.969Z,52.35
2022-08-01T04:51:00.163Z,52.29
2022-08-01T04:53:27.703Z,52.64
2022-08-01T04:55:54.734Z,52.74
2022-08-01T04:58:21.479Z,52.89
2022-08-01T05:00:48.665Z,52.47
2022-08-01T05:03:15.750Z,52.38
2022-08-01T05:05:42.481Z,51.98
2022-08-01T05:08:09.305Z,52.23
2022-08-01T05:10:36.266Z,52.24
2022-08-01T05:13:03.083Z,50.34
2022-08-01T05:15:29.816Z,50.37
2022-08-01T05:17:57.578Z,50.36
2022-08-01T05:20:24.328Z,51.66
2022-08-01T05:22:52.115Z,51.27
2022-08-01T05:25:19.997Z,50.22
2022-08-01T05:27:47.440Z,50.41
2022-08-01T05:30:16.017Z,51.02
2022-08-01T05:32:43.084Z,50.10
2022-08-01T05:35:10.169Z,50.48
2022-08-01T05:37:37.765Z,50.44
2022-08-01T05:40:05.373Z,51.41
2022-08-01T05:42:32.150Z,50.34
2022-08-01T05:44:58.863Z,49.46
2022-08-01T05:47:25.836Z,49.24
2022-08-01T05:49:52.511Z,48.89
2022-08-01T05:52:19.278Z,49.10
2022-08-01T05:54:46.273Z,48.49
2022-08-01T05:57:13.020Z,48.40
2022-08-01T05:59:41.554Z,48.05
2022-08-01T06:02:10.373Z,48.88
2022-08-01T06:04:37.868Z,49.55
2022-08-01T06:07:04.669Z,49.32
2022-08-01T06:09:31.966Z,48.65
2022-08-01T06:11:59.142Z,48.83
2022-08-01T06:14:25.976Z,49.12
2022-08-01T06:16:52.742Z,48.86
2022-08-01T06:19:19.789Z,48.50
2022-08-01T06:21:46.573Z,48.63
2022-08-01T06:24:13.331Z,49.35
2022-08-01T06:26:40.315Z,48.07
2022-08-01T06:29:07.124Z,47.69
2022-08-01T06:31:36.744Z,48.74
2022-08-01T06:34:04.029Z,47.99
2022-08-01T06:36:30.838Z,47.71
2022-08-01T06:38:57.664Z,47.27
2022-08-01T06:41:25.943Z,46.18
2022-08-01T06:43:52.690Z,46.29
2022-08-01T06:46:19.419Z,44.23
2022-08-01T06:48:46.387Z,44.11
2022-08-01T06:51:17.915Z,43.29
2022-08-01T06:53:45.013Z,43.48
2022-08-01T06:56:12.081Z,40.99
2022-08-01T06:58:38.849Z,40.96
2022-08-01T07:01:08.607Z,40.78
2022-08-01T07:03:54.543Z,39.01
2022-08-01T07:06:25.363Z,40.84
2022-08-01T07:08:55.481Z,39.47
2022-08-01T07:11:22.798Z,39.04
2022-08-01T07:13:49.547Z,39.59
2022-08-01T07:16:16.745Z,37.98
2022-08-01T07:18:43.643Z,37.83
2022-08-01T07:21:16.364Z,37.97
2022-08-01T07:23:57.438Z,35.25
2022-08-01T07:26:24.261Z,36.20
2022-08-01T07:28:50.965Z,34.28
2022-08-01T07:31:17.945Z,34.44
2022-08-01T07:33:48.749Z,34.15
2022-08-01T07:36:16.564Z,37.03
2022-08-01T07:38:43.611Z,34.37
2022-08-01T07:41:10.403Z,37.83
2022-08-01T07:43:37.168Z,33.86
2022-08-01T07:46:04.468Z,32.98
2022-08-01T07:48:31.251Z,33.94
2022-08-01T07:50:58.035Z,36.21
2022-08-01T07:53:25.083Z,36.95
2022-08-01T07:55:51.953Z,33.94
2022-08-01T07:58:18.811Z,34.29
2022-08-01T08:00:45.857Z,35.52
2022-08-01T08:03:12.907Z,33.66
2022-08-01T08:05:57.794Z,34.24
2022-08-01T08:08:26.320Z,33.36
2022-08-01T08:10:53.040Z,33.45
2022-08-01T08:13:19.750Z,34.86
2022-08-01T08:15:48.602Z,34.06
2022-08-01T08:18:15.938Z,35.56
2022-08-01T08:20:42.675Z,36.31
2022-08-01T08:23:43.015Z,37.29
2022-08-01T08:26:13.439Z,36.97
2022-08-01T08:28:40.845Z,35.78
2022-08-01T08:31:08.105Z,36.46
2022-08-01T08:33:55.247Z,35.91
2022-08-01T08:36:22.069Z,36.01
2022-08-01T08:39:03.995Z,35.11
2022-08-01T08:41:37.570Z,35.74
2022-08-01T08:44:05.939Z,35.90
2022-08-01T08:46:43.707Z,38.09
2022-08-01T08:49:11.876Z,37.13
2022-08-01T08:51:41.253Z,35.75
2022-08-01T08:54:08.407Z,38.14
2022-08-01T08:56:35.782Z,37.66
2022-08-01T08:59:02.815Z,36.00
2022-08-01T09:01:29.828Z,35.41
2022-08-01T09:03:56.918Z,36.25
2022-08-01T09:06:23.870Z,36.99
2022-08-01T09:08:50.801Z,34.91
2022-08-01T09:11:22.639Z,35.23
2022-08-01T09:14:27.280Z,36.03
2022-08-01T09:17:21.115Z,38.30
2022-08-01T09:19:55.384Z,36.95
2022-08-01T09:22:25.605Z,36.13
2022-08-01T09:25:08.638Z,36.18
2022-08-01T09:27:36.229Z,34.61
2022-08-01T09:30:09.144Z,37.32
2022-08-01T09:32:37.504Z,34.70
2022-08-01T09:35:23.788Z,34.67
2022-08-01T09:37:50.880Z,35.21
2022-08-01T09:40:18.818Z,35.41
2022-08-01T09:42:49.773Z,35.12
2022-08-01T09:45:41.709Z,35.47
2022-08-01T09:48:11.265Z,35.70
2022-08-01T09:50:42.834Z,33.51
2022-08-01T09:53:24.374Z,34.77
2022-08-01T09:55:56.953Z,32.99
2022-08-01T09:58:23.779Z,32.51
2022-08-01T10:01:01.250Z,32.76
2022-08-01T10:03:30.546Z,32.84
2022-08-01T10:05:59.392Z,32.85
2022-08-01T10:08:26.938Z,34.00
2022-08-01T10:11:12.410Z,33.53
2022-08-01T10:13:39.465Z,32.63
2022-08-01T10:16:07.635Z,31.36
2022-08-01T10:18:35.019Z,32.22
2022-08-01T10:21:03.748Z,30.43
2022-08-01T10:23:39.740Z,34.55
2022-08-01T10:26:07.251Z,32.52
2022-08-01T10:28:36.344Z,32.07
2022-08-01T10:31:12.672Z,31.00
2022-08-01T10:33:51.334Z,32.65
2022-08-01T10:36:21.295Z,31.56
2022-08-01T10:38:49.713Z,31.92
2022-08-01T10:41:16.472Z,31.76
2022-08-01T10:43:45.648Z,31.99
2022-08-01T10:46:14.227Z,32.43
2022-08-01T10:48:47.121Z,31.43
2022-08-01T10:51:18.107Z,31.39
2022-08-01T10:53:54.157Z,31.48
2022-08-01T10:56:26.612Z,32.57
2022-08-01T10:59:06.564Z,29.66
2022-08-01T11:01:38.947Z,30.50
2022-08-01T11:04:17.903Z,30.99
2022-08-01T11:07:06.194Z,30.57
2022-08-01T11:09:40.362Z,30.39
2022-08-01T11:12:14.432Z,30.68
2022-08-01T11:14:59.818Z,30.15
2022-08-01T11:17:49.273Z,31.04
2022-08-01T11:20:17.351Z,30.20
2022-08-01T11:22:59.740Z,30.39
2022-08-01T11:26:03.244Z,28.72
2022-08-01T11:28:28.598Z,27.65
2022-08-01T11:31:00.253Z,30.16
2022-08-01T11:33:47.132Z,28.72
2022-08-01T11:36:14.846Z,29.99
2022-08-01T11:38:45.760Z,28.32
2022-08-01T11:41:12.575Z,28.44
2022-08-01T11:43:56.252Z,28.49
2022-08-01T11:46:42.205Z,28.64
2022-08-01T11:49:49.126Z,29.23
2022-08-01T11:52:29.862Z,28.40
2022-08-01T11:54:58.082Z,28.45
2022-08-01T11:57:34.586Z,29.04
2022-08-01T12:00:24.495Z,27.54
2022-08-01T12:03:01.492Z,29.16
2022-08-01T12:05:32.203Z,29.20
2022-08-01T12:07:59.268Z,29.65
2022-08-01T12:10:28.187Z,28.16
2022-08-01T12:13:01.316Z,26.27
2022-08-01T12:15:35.103Z,27.84
2022-08-01T12:18:02.798Z,27.36
2022-08-01T12:20:31.689Z,26.98
2022-08-01T12:23:00.141Z,27.79
2022-08-01T12:25:27.510Z,28.27
2022-08-01T12:27:56.802Z,27.95
2022-08-01T12:30:25.512Z,30.18
2022-08-01T12:32:53.647Z,30.14
2022-08-01T12:35:24.055Z,28.33
2022-08-01T12:37:52.504Z,28.45
2022-08-01T12:40:23.733Z,29.29
2022-08-01T12:42:54.691Z,28.24
2022-08-01T12:45:22.703Z,27.47
2022-08-01T12:47:49.435Z,28.13
2022-08-01T12:50:23.656Z,27.27
2022-08-01T12:52:51.395Z,28.03
2022-08-01T12:55:19.160Z,27.92
2022-08-01T12:57:46.653Z,28.89
2022-08-01T13:00:16.858Z,28.14
2022-08-01T13:02:44.488Z,27.43
2022-08-01T13:05:11.571Z,28.34
2022-08-01T13:07:45.354Z,28.21
2022-08-01T13:10:13.519Z,27.39
2022-08-01T13:12:41.106Z,27.40
2022-08-01T13:15:17.250Z,26.75
2022-08-01T13:17:45.376Z,28.48
2022-08-01T13:20:21.889Z,26.55
2022-08-01T13:22:48.902Z,28.22
2022-08-01T13:25:20.819Z,26.33
2022-08-01T13:27:53.663Z,26.36
2022-08-01T13:30:21.734Z,26.29
2022-08-01T13:32:59.574Z,27.66
2022-08-01T13:35:26.448Z,26.81
2022-08-01T13:37:53.549Z,28.79
2022-08-01T13:40:27.626Z,27.86
2022-08-01T13:42:55.960Z,27.30
2022-08-01T13:45:23.802Z,27.89
2022-08-01T13:48:03.993Z,28.05
2022-08-01T13:50:40.297Z,28.80
2022-08-01T13:53:07.909Z,28.14
2022-08-01T13:55:37.380Z,27.94
2022-08-01T13:58:04.432Z,28.15
2022-08-01T14:00:31.286Z,28.50
2022-08-01T14:02:58.310Z,28.40
2022-08-01T14:05:25.059Z,29.14
2022-08-01T14:07:56.368Z,28.57
2022-08-01T14:10:24.549Z,28.71
2022-08-01T14:12:51.462Z,28.87
2022-08-01T14:15:38.631Z,28.51
2022-08-01T14:18:06.153Z,29.29
2022-08-01T14:20:33.445Z,28.81
2022-08-01T14:23:00.302Z,30.16
2022-08-01T14:26:00.241Z,29.39
2022-08-01T14:28:14.190Z,28.76
2022-08-01T14:30:42.418Z,29.48
2022-08-01T14:33:09.520Z,28.77
2022-08-01T14:35:46.543Z,29.32
2022-08-01T14:38:31.532Z,29.21
2022-08-01T14:41:00.321Z,30.26
2022-08-01T14:43:32.848Z,32.68
2022-08-01T14:46:00.357Z,30.31
2022-08-01T14:48:27.429Z,29.80
2022-08-01T14:50:54.192Z,30.33
2022-08-01T14:53:21.204Z,30.91
2022-08-01T14:55:48.278Z,30.80
2022-08-01T14:58:15.418Z,29.99
2022-08-01T15:00:42.252Z,30.66
2022-08-01T15:03:09.325Z,30.07
2022-08-01T15:05:37.246Z,30.53
2022-08-01T15:08:04.406Z,30.78
2022-08-01T15:10:33.184Z,31.08
2022-08-01T15:13:01.081Z,29.90
2022-08-01T15:15:28.180Z,29.40
2022-08-01T15:17:55.402Z,29.74
2022-08-01T15:20:22.261Z,29.46
2022-08-01T15:22:49.538Z,30.38
2022-08-01T15:25:16.693Z,27.44
2022-08-01T15:27:43.567Z,28.73
2022-08-01T15:30:10.794Z,29.06
2022-08-01T15:32:37.918Z,29.68
2022-08-01T15:35:05.909Z,29.06
2022-08-01T15:37:32.750Z,29.52
2022-08-01T15:39:59.794Z,28.89
2022-08-01T15:42:27.177Z,29.06
2022-08-01T15:44:54.341Z,28.68
2022-08-01T15:47:22.591Z,28.58
2022-08-01T15:49:52.339Z,28.59
2022-08-01T15:52:21.931Z,29.31
2022-08-01T15:54:50.123Z,28.60
2022-08-01T15:57:16.961Z,29.15
2022-08-01T15:59:43.810Z,29.52
2022-08-01T16:02:11.382Z,29.89
2022-08-01T16:04:39.242Z,29.86
2022-08-01T16:07:06.326Z,29.66
2022-08-01T16:09:33.137Z,29.76
2022-08-01T16:12:00.309Z,29.79
2022-08-01T16:14:27.055Z,29.87
2022-08-01T16:16:56.615Z,30.44
2022-08-01T16:19:24.254Z,29.52
2022-08-01T16:21:53.363Z,30.64
2022-08-01T16:24:20.285Z,29.95
2022-08-01T16:26:47.312Z,30.72
2022-08-01T16:29:14.034Z,30.13
2022-08-01T16:31:53.802Z,30.39
2022-08-01T16:34:28.115Z,29.75
2022-08-01T16:36:55.848Z,30.15
2022-08-01T16:39:23.682Z,30.21
2022-08-01T16:42:05.461Z,29.48
2022-08-01T16:44:34.286Z,29.63
2022-08-01T16:47:02.642Z,29.44
2022-08-01T16:49:29.503Z,29.86
2022-08-01T16:51:56.494Z,29.51
2022-08-01T16:54:25.130Z,29.32
2022-08-01T16:56:54.345Z,29.37
2022-08-01T16:59:23.110Z,29.76
2022-08-01T17:02:01.428Z,29.79
2022-08-01T17:04:30.116Z,31.15
2022-08-01T17:06:57.320Z,30.99
2022-08-01T17:09:24.130Z,30.90
2022-08-01T17:11:51.144Z,31.09
2022-08-01T17:14:18.049Z,30.72
2022-08-01T17:16:44.854Z,31.05
2022-08-01T17:19:11.918Z,30.54
2022-08-01T17:21:42.530Z,31.72
2022-08-01T17:24:09.415Z,32.34
2022-08-01T17:26:36.458Z,31.39
2022-08-01T17:29:03.611Z,32.51
2022-08-01T17:31:30.408Z,32.27
2022-08-01T17:33:57.444Z,32.27
2022-08-01T17:36:24.269Z,31.84
2022-08-01T17:38:51.014Z,32.09
2022-08-01T17:41:18.047Z,31.85
2022-08-01T17:43:44.793Z,32.66
2022-08-01T17:46:11.547Z,32.60
2022-08-01T17:48:38.660Z,32.73
2022-08-01T17:51:06.474Z,33.06
2022-08-01T17:53:33.791Z,32.83
2022-08-01T17:56:02.496Z,33.29
2022-08-01T17:58:49.242Z,33.21
2022-08-01T18:01:17.302Z,33.39
2022-08-01T18:03:44.536Z,33.72
2022-08-01T18:06:14.193Z,33.49
2022-08-01T18:08:42.217Z,33.55
2022-08-01T18:11:09.573Z,33.62
2022-08-01T18:13:36.729Z,33.98
2022-08-01T18:16:10.944Z,34.19
2022-08-01T18:18:39.118Z,34.35
2022-08-01T18:21:06.489Z,34.59
2022-08-01T18:23:33.783Z,34.55
2022-08-01T18:26:02.368Z,34.81
2022-08-01T18:28:34.085Z,34.96
2022-08-01T18:31:04.059Z,34.91
2022-08-01T18:33:30.964Z,35.12
2022-08-01T18:36:03.515Z,35.23
2022-08-01T18:38:33.154Z,35.39
2022-08-01T18:41:01.236Z,35.64
2022-08-01T18:43:28.425Z,35.72
2022-08-01T18:45:59.061Z,35.88
2022-08-01T18:48:25.999Z,36.06
2022-08-01T18:50:54.133Z,36.13
2022-08-01T18:53:23.735Z,36.28
2022-08-01T18:55:50.628Z,36.52
2022-08-01T18:58:17.445Z,36.47
2022-08-01T19:00:44.570Z,36.53
2022-08-01T19:03:11.428Z,36.42
2022-08-01T19:05:38.220Z,36.76
2022-08-01T19:08:07.727Z,36.80
2022-08-01T19:10:41.237Z,37.20
2022-08-01T19:13:09.541Z,37.29
2022-08-01T19:15:36.765Z,37.41
2022-08-01T19:18:03.903Z,37.69
2022-08-01T19:20:31.376Z,37.68
2022-08-01T19:22:58.348Z,38.23
2022-08-01T19:25:25.255Z,38.38
2022-08-01T19:27:53.297Z,38.40
2022-08-01T19:30:26.094Z,38.39
2022-08-01T19:32:54.243Z,38.85
2022-08-01T19:35:22.877Z,39.12
2022-08-01T19:37:54.088Z,39.44
2022-08-01T19:40:26.206Z,39.76
2022-08-01T19:42:53.924Z,40.04
2022-08-01T19:45:21.050Z,40.10
2022-08-01T19:47:51.994Z,39.80
2022-08-01T19:50:26.632Z,40.17
2022-08-01T19:52:55.462Z,40.99
2022-08-01T19:55:23.396Z,41.74
2022-08-01T19:58:10.593Z,42.43
2022-08-01T20:00:38.159Z,42.18
2022-08-01T20:03:06.104Z,41.98
2022-08-01T20:05:38.709Z,42.24
2022-08-01T20:08:07.222Z,42.46
2022-08-01T20:10:34.302Z,42.88
2022-08-01T20:13:01.072Z,42.98
2022-08-01T20:15:29.337Z,43.13
2022-08-01T20:17:59.411Z,43.11
2022-08-01T20:20:26.892Z,43.18
2022-08-01T20:22:54.479Z,44.51
2022-08-01T20:25:21.258Z,44.93
2022-08-01T20:27:48.098Z,45.20
2022-08-01T20:30:15.180Z,43.92
2022-08-01T20:32:42.048Z,43.60
2022-08-01T20:35:09.951Z,44.16
2022-08-01T20:38:03.993Z,44.04
2022-08-01T20:40:28.729Z,43.74
2022-08-01T20:42:56.487Z,42.79
2022-08-01T20:45:27.318Z,42.31
2022-08-01T20:47:54.539Z,42.46
2022-08-01T20:50:54.203Z,42.74
2022-08-01T20:53:29.862Z,42.68
2022-08-01T20:56:02.926Z,42.85
2022-08-01T20:58:34.627Z,42.53
2022-08-01T21:01:02.049Z,42.77
2022-08-01T21:03:32.930Z,44.40
2022-08-01T21:06:06.442Z,44.49
2022-08-01T21:08:39.525Z,44.15
2022-08-01T21:11:07.379Z,44.04
2022-08-01T21:13:34.793Z,44.74
2022-08-01T21:16:24.351Z,44.84
2022-08-01T21:19:18.426Z,44.91
2022-08-01T21:21:54.679Z,44.63
2022-08-01T21:24:22.540Z,45.60
2022-08-01T21:26:50.507Z,45.83
2022-08-01T21:29:17.960Z,45.88
2022-08-01T21:31:44.999Z,45.28
2022-08-01T21:34:12.292Z,45.12
2022-08-01T21:36:39.104Z,45.34
2022-08-01T21:39:06.933Z,45.69
2022-08-01T21:42:03.389Z,44.25
2022-08-01T21:44:20.787Z,44.27
2022-08-01T21:46:48.326Z,44.52
2022-08-01T21:49:15.206Z,44.43
2022-08-01T21:51:42.345Z,44.66
2022-08-01T21:54:13.108Z,45.07
2022-08-01T21:56:49.740Z,45.07
2022-08-01T21:59:40.042Z,45.18
2022-08-01T22:02:11.980Z,45.92
2022-08-01T22:04:43.327Z,45.40
2022-08-01T22:07:12.986Z,45.78
2022-08-01T22:09:40.826Z,45.99
2022-08-01T22:12:07.677Z,45.98
2022-08-01T22:14:34.406Z,46.10
2022-08-01T22:17:01.404Z,46.02
2022-08-01T22:19:43.841Z,46.58
2022-08-01T22:22:44.945Z,46.76
2022-08-01T22:25:01.370Z,46.99
2022-08-01T22:28:06.281Z,47.29
2022-08-01T22:30:16.160Z,47.34
2022-08-01T22:32:43.697Z,46.88
2022-08-01T22:35:12.221Z,46.88
2022-08-01T22:37:57.205Z,46.53
2022-08-01T22:40:24.591Z,46.77
2022-08-01T22:42:56.991Z,46.23
2022-08-01T22:45:30.947Z,46.46
2022-08-01T22:48:16.258Z,47.16
2022-08-01T22:51:09.835Z,47.52
2022-08-01T22:53:43.313Z,47.85
2022-08-01T22:56:13.323Z,47.60
2022-08-01T22:58:41.137Z,47.59
2022-08-01T23:01:09.900Z,47.46
2022-08-01T23:03:39.993Z,47.50
2022-08-01T23:06:06.771Z,47.55
2022-08-01T23:08:33.904Z,47.84
2022-08-01T23:11:05.297Z,47.79
2022-08-01T23:13:32.673Z,48.06
2022-08-01T23:15:59.916Z,47.96
2022-08-01T23:18:27.007Z,48.70
2022-08-01T23:20:57.343Z,48.43
2022-08-01T23:23:31.864Z,48.40
2022-08-01T23:25:59.626Z,48.54
2022-08-01T23:28:26.637Z,48.47
2022-08-01T23:30:55.706Z,48.26
2022-08-01T23:33:25.175Z,48.84
2022-08-01T23:35:53.522Z,49.37
2022-08-01T23:38:20.444Z,48.95
2022-08-01T23:40:47.620Z,49.39
2022-08-01T23:43:16.086Z,49.30
2022-08-01T23:46:03.653Z,50.07
2022-08-01T23:48:33.577Z,50.17
2022-08-01T23:51:00.521Z,49.60
2022-08-01T23:53:30.433Z,49.80
2022-08-01T23:55:58.912Z,49.28
2022-08-01T23:58:25.607Z,49.96
